Terminal Aerodrome Forecast
Issued by NWS Melbourne, FL

Home | Current Version | Previous Version | Text Only | Print | Product List | Glossary On
Versions: 1 2 3 4 5 6 7 8 9 10 11 12 13 14 15 16 17
000
FTUS42 KMLB 261100
TAFMLB
TAF
KMLB 261122Z 2612/2712 30005KT P6SM FEW030 SCT250
     FM261400 01006KT P6SM SCT035
     FM261800 06007KT P6SM BKN035
     FM270000 03005KT P6SM OVC035
     FM270900 04005KT 5SM BR BKN009=

USA.gov is the U.S. government's official web portal to all federal, state and local government web resources and services.